Saskatoon John G. Diefenbaker International Airport
CYXE : now visible

Airfield :











YOU CAN JOIN US ON...

 
LOGIN :

Register | Disclaimer

   EN    FR    IT 

 









Legend :    VFR   Marginal VFR   IFR   Intensive IFR   Very Intensive IFR
Visi :
Ceiling :
>= 8 km
>= 3000ft
5 to 8 km
1000 to 3000 ft
1500m to 5 km
500 to 1000 ft
800 to 1500m
200 to 500 ft
< 800m
< 200 ft
Symbols :   Thunderstorms  Fog  Heavy snow  Heavy precipitations  Wind > 20 kt






- Airport Elevation : 1653 ft
- IATA code : YXE


CYXE - Saskatoon John G. Diefenbaker International

CURRENT METAR :
  • 121700Z 17007KT 150V210 15SM FEW076CB SCT150 18/M01 A3010 RMK CB2AC1 VIRGA SLP205 DENSITY ALT 2200FT

EXPIRED METARs :
  • 121600Z 19004KT 15SM SCT065CB 13/M01 A3011 RMK CB3 VIRGA SLP210 DENSITY ALT 1700FT
  • 121500Z 00000KT 15SM SCT060TCU SCT150 13/M02 A3011 RMK TCU3AC1 SLP210

TAF TAF CYXE
Valid from the 12 at 12:00 until the 13 at 12:00 UTC


121151Z 1212/1312 22005KT P6SM FEW140
FM121700 18005KT P6SM SCT080
TEMPO 1219/1220 BKN080
FM122000 24005KT P6SM BKN080
TEMPO 1221/1301 VRB20G30KT P6SM -SHRA VCTS BKN080CB
FM130300 03008KT P6SM SCT100
BECMG 1305/1307 09004KT
FM130800 VRB03KT P6SM SKC
BECMG 1310/1312 22004KT RMK NXT FCST BY 121800Z
CZWG FIR / North America



MET'MAP, your aeronautical weather chart ! - Copyright ORBIFLY December 2007 - Disclaimer

ORBIFLY MET'MAP TEAM :

Programming & Development : Alexandra Zaïnal
Concept & original design : Baudouin d'Aumeries
Assistance for programming : Marc-Olivier Méhu
Technical & hardware support : Manuel Goepfert

Contact : metmap@orbifly.com




SOURCES & CREDITS :

   NOAA       Earth
Advisory